sensor_id;sensor_type;location;lat;lon;timestamp;P1;durP1;ratioP1;P2;durP2;ratioP2
44746;SDS011;30472;49.490;10.972;2023-10-08T00:01:18;11.83;;;3.53;;
44746;SDS011;30472;49.490;10.972;2023-10-08T00:03:47;7.27;;;2.87;;
44746;SDS011;30472;49.490;10.972;2023-10-08T00:06:14;5.30;;;3.27;;
44746;SDS011;30472;49.490;10.972;2023-10-08T00:08:40;4.07;;;2.83;;
44746;SDS011;30472;49.490;10.972;2023-10-08T00:11:06;7.90;;;3.87;;
44746;SDS011;30472;49.490;10.972;2023-10-08T00:13:32;8.47;;;3.67;;
44746;SDS011;30472;49.490;10.972;2023-10-08T00:16:08;6.40;;;3.30;;
44746;SDS011;30472;49.490;10.972;2023-10-08T00:18:40;5.57;;;2.73;;
44746;SDS011;30472;49.490;10.972;2023-10-08T00:21:13;6.93;;;3.47;;
44746;SDS011;30472;49.490;10.972;2023-10-08T00:23:39;5.67;;;3.20;;
44746;SDS011;30472;49.490;10.972;2023-10-08T00:26:07;6.40;;;3.13;;
44746;SDS011;30472;49.490;10.972;2023-10-08T00:28:33;6.07;;;3.10;;
44746;SDS011;30472;49.490;10.972;2023-10-08T00:31:01;7.67;;;3.60;;
44746;SDS011;30472;49.490;10.972;2023-10-08T00:33:36;6.83;;;3.17;;
44746;SDS011;30472;49.490;10.972;2023-10-08T00:36:02;5.57;;;2.83;;
44746;SDS011;30472;49.490;10.972;2023-10-08T00:38:42;6.47;;;2.80;;
44746;SDS011;30472;49.490;10.972;2023-10-08T00:41:12;7.80;;;2.97;;
44746;SDS011;30472;49.490;10.972;2023-10-08T00:43:41;6.93;;;3.20;;
44746;SDS011;30472;49.490;10.972;2023-10-08T00:46:09;4.40;;;3.17;;
44746;SDS011;30472;49.490;10.972;2023-10-08T00:48:46;6.03;;;3.30;;
44746;SDS011;30472;49.490;10.972;2023-10-08T00:51:13;6.83;;;3.03;;
44746;SDS011;30472;49.490;10.972;2023-10-08T00:53:56;7.37;;;3.20;;
44746;SDS011;30472;49.490;10.972;2023-10-08T00:56:30;5.40;;;3.23;;
44746;SDS011;30472;49.490;10.972;2023-10-08T00:59:33;8.73;;;3.27;;
44746;SDS011;30472;49.490;10.972;2023-10-08T01:02:09;7.10;;;3.00;;
44746;SDS011;30472;49.490;10.972;2023-10-08T01:04:40;8.87;;;3.40;;
44746;SDS011;30472;49.490;10.972;2023-10-08T01:07:09;6.87;;;3.30;;
44746;SDS011;30472;49.490;10.972;2023-10-08T01:09:43;10.87;;;3.10;;
44746;SDS011;30472;49.490;10.972;2023-10-08T01:12:15;6.77;;;3.03;;
44746;SDS011;30472;49.490;10.972;2023-10-08T01:14:45;5.43;;;3.17;;
44746;SDS011;30472;49.490;10.972;2023-10-08T01:17:13;4.80;;;3.10;;
44746;SDS011;30472;49.490;10.972;2023-10-08T01:19:44;7.33;;;3.63;;
44746;SDS011;30472;49.490;10.972;2023-10-08T01:22:15;6.83;;;3.33;;
44746;SDS011;30472;49.490;10.972;2023-10-08T01:24:43;4.57;;;2.63;;
44746;SDS011;30472;49.490;10.972;2023-10-08T01:27:13;6.73;;;3.07;;
44746;SDS011;30472;49.490;10.972;2023-10-08T01:29:47;5.03;;;3.03;;
44746;SDS011;30472;49.490;10.972;2023-10-08T01:32:15;8.43;;;3.47;;
44746;SDS011;30472;49.490;10.972;2023-10-08T01:34:42;6.47;;;3.60;;
44746;SDS011;30472;49.490;10.972;2023-10-08T01:37:12;5.57;;;3.40;;
44746;SDS011;30472;49.490;10.972;2023-10-08T01:39:43;9.50;;;2.97;;
44746;SDS011;30472;49.490;10.972;2023-10-08T01:42:15;6.93;;;3.10;;
44746;SDS011;30472;49.490;10.972;2023-10-08T01:44:46;7.67;;;3.63;;
44746;SDS011;30472;49.490;10.972;2023-10-08T01:47:13;5.43;;;2.77;;
44746;SDS011;30472;49.490;10.972;2023-10-08T01:49:41;6.83;;;2.83;;
44746;SDS011;30472;49.490;10.972;2023-10-08T01:52:09;6.97;;;3.07;;
44746;SDS011;30472;49.490;10.972;2023-10-08T01:54:42;6.80;;;2.97;;
44746;SDS011;30472;49.490;10.972;2023-10-08T01:57:09;4.77;;;3.00;;
44746;SDS011;30472;49.490;10.972;2023-10-08T01:59:35;9.93;;;2.90;;
44746;SDS011;30472;49.490;10.972;2023-10-08T02:02:02;5.20;;;3.00;;
44746;SDS011;30472;49.490;10.972;2023-10-08T02:04:30;9.30;;;3.60;;
44746;SDS011;30472;49.490;10.972;2023-10-08T02:07:02;6.80;;;3.20;;
44746;SDS011;30472;49.490;10.972;2023-10-08T02:09:37;8.67;;;3.43;;
44746;SDS011;30472;49.490;10.972;2023-10-08T02:12:03;6.33;;;3.47;;
44746;SDS011;30472;49.490;10.972;2023-10-08T02:14:29;4.90;;;2.80;;
44746;SDS011;30472;49.490;10.972;2023-10-08T02:16:56;7.07;;;3.10;;
44746;SDS011;30472;49.490;10.972;2023-10-08T02:19:28;5.07;;;3.10;;
44746;SDS011;30472;49.490;10.972;2023-10-08T02:21:54;8.57;;;3.60;;
44746;SDS011;30472;49.490;10.972;2023-10-08T02:24:21;6.47;;;2.90;;
44746;SDS011;30472;49.490;10.972;2023-10-08T02:26:50;6.23;;;3.47;;
44746;SDS011;30472;49.490;10.972;2023-10-08T02:29:17;6.70;;;3.53;;
44746;SDS011;30472;49.490;10.972;2023-10-08T02:31:42;5.77;;;2.87;;
44746;SDS011;30472;49.490;10.972;2023-10-08T02:34:08;7.57;;;3.33;;
44746;SDS011;30472;49.490;10.972;2023-10-08T02:36:38;5.83;;;3.23;;
44746;SDS011;30472;49.490;10.972;2023-10-08T02:39:07;7.23;;;2.93;;
44746;SDS011;30472;49.490;10.972;2023-10-08T02:41:40;9.80;;;3.07;;
44746;SDS011;30472;49.490;10.972;2023-10-08T02:44:18;6.20;;;3.03;;
44746;SDS011;30472;49.490;10.972;2023-10-08T02:46:46;6.57;;;3.60;;
44746;SDS011;30472;49.490;10.972;2023-10-08T02:49:16;8.40;;;3.93;;
44746;SDS011;30472;49.490;10.972;2023-10-08T02:51:46;6.43;;;3.23;;
44746;SDS011;30472;49.490;10.972;2023-10-08T02:54:15;7.27;;;3.70;;
44746;SDS011;30472;49.490;10.972;2023-10-08T02:56:46;7.23;;;3.10;;
44746;SDS011;30472;49.490;10.972;2023-10-08T02:59:15;8.77;;;3.53;;
44746;SDS011;30472;49.490;10.972;2023-10-08T03:01:41;6.27;;;3.50;;
44746;SDS011;30472;49.490;10.972;2023-10-08T03:04:10;5.07;;;3.37;;
44746;SDS011;30472;49.490;10.972;2023-10-08T03:06:48;10.13;;;3.57;;
44746;SDS011;30472;49.490;10.972;2023-10-08T03:09:15;7.30;;;3.33;;
44746;SDS011;30472;49.490;10.972;2023-10-08T03:11:46;6.77;;;3.40;;
44746;SDS011;30472;49.490;10.972;2023-10-08T03:14:13;5.37;;;3.63;;
44746;SDS011;30472;49.490;10.972;2023-10-08T03:16:46;4.20;;;2.80;;
44746;SDS011;30472;49.490;10.972;2023-10-08T03:19:23;4.67;;;3.03;;
44746;SDS011;30472;49.490;10.972;2023-10-08T03:21:50;7.30;;;3.20;;
44746;SDS011;30472;49.490;10.972;2023-10-08T03:24:19;8.63;;;3.60;;
44746;SDS011;30472;49.490;10.972;2023-10-08T03:27:00;4.23;;;2.80;;
44746;SDS011;30472;49.490;10.972;2023-10-08T03:29:38;5.43;;;3.40;;
44746;SDS011;30472;49.490;10.972;2023-10-08T03:32:10;6.77;;;3.50;;
44746;SDS011;30472;49.490;10.972;2023-10-08T03:34:51;5.23;;;3.00;;
44746;SDS011;30472;49.490;10.972;2023-10-08T03:37:21;6.80;;;3.23;;
44746;SDS011;30472;49.490;10.972;2023-10-08T03:39:54;7.00;;;3.83;;
44746;SDS011;30472;49.490;10.972;2023-10-08T03:42:47;10.03;;;3.37;;
44746;SDS011;30472;49.490;10.972;2023-10-08T03:45:14;10.60;;;4.20;;
44746;SDS011;30472;49.490;10.972;2023-10-08T03:47:47;9.43;;;4.30;;
44746;SDS011;30472;49.490;10.972;2023-10-08T03:50:27;8.07;;;4.07;;
44746;SDS011;30472;49.490;10.972;2023-10-08T03:53:05;5.83;;;3.33;;
44746;SDS011;30472;49.490;10.972;2023-10-08T03:55:36;8.07;;;3.03;;
44746;SDS011;30472;49.490;10.972;2023-10-08T03:58:09;5.80;;;3.13;;
44746;SDS011;30472;49.490;10.972;2023-10-08T04:00:37;6.13;;;3.47;;
44746;SDS011;30472;49.490;10.972;2023-10-08T04:03:07;7.53;;;3.37;;
44746;SDS011;30472;49.490;10.972;2023-10-08T04:05:36;11.80;;;3.60;;
44746;SDS011;30472;49.490;10.972;2023-10-08T04:08:37;8.10;;;3.90;;
44746;SDS011;30472;49.490;10.972;2023-10-08T04:11:11;5.03;;;2.77;;
44746;SDS011;30472;49.490;10.972;2023-10-08T04:14:15;7.27;;;3.47;;
44746;SDS011;30472;49.490;10.972;2023-10-08T04:16:41;6.83;;;3.60;;
44746;SDS011;30472;49.490;10.972;2023-10-08T04:19:07;5.17;;;3.33;;
44746;SDS011;30472;49.490;10.972;2023-10-08T04:21:33;7.23;;;3.00;;
44746;SDS011;30472;49.490;10.972;2023-10-08T04:24:02;8.30;;;3.67;;
44746;SDS011;30472;49.490;10.972;2023-10-08T04:26:31;6.93;;;3.73;;
44746;SDS011;30472;49.490;10.972;2023-10-08T04:28:57;6.27;;;3.03;;
44746;SDS011;30472;49.490;10.972;2023-10-08T04:31:30;5.57;;;3.47;;
44746;SDS011;30472;49.490;10.972;2023-10-08T04:34:03;7.20;;;3.63;;
44746;SDS011;30472;49.490;10.972;2023-10-08T04:36:35;5.50;;;3.07;;
44746;SDS011;30472;49.490;10.972;2023-10-08T04:39:05;13.60;;;3.17;;
44746;SDS011;30472;49.490;10.972;2023-10-08T04:41:38;7.13;;;3.50;;
44746;SDS011;30472;49.490;10.972;2023-10-08T04:44:08;6.53;;;3.20;;
44746;SDS011;30472;49.490;10.972;2023-10-08T04:46:40;7.10;;;3.57;;
44746;SDS011;30472;49.490;10.972;2023-10-08T04:49:13;6.40;;;3.30;;
44746;SDS011;30472;49.490;10.972;2023-10-08T04:51:56;4.83;;;3.13;;
44746;SDS011;30472;49.490;10.972;2023-10-08T04:54:26;5.60;;;3.53;;
44746;SDS011;30472;49.490;10.972;2023-10-08T04:56:56;9.73;;;3.20;;
44746;SDS011;30472;49.490;10.972;2023-10-08T04:59:23;5.47;;;3.53;;
44746;SDS011;30472;49.490;10.972;2023-10-08T05:01:57;5.93;;;3.20;;
44746;SDS011;30472;49.490;10.972;2023-10-08T05:04:42;6.53;;;3.87;;
44746;SDS011;30472;49.490;10.972;2023-10-08T05:07:22;7.00;;;3.17;;
44746;SDS011;30472;49.490;10.972;2023-10-08T05:10:07;5.67;;;3.40;;
44746;SDS011;30472;49.490;10.972;2023-10-08T05:12:33;8.23;;;3.40;;
44746;SDS011;30472;49.490;10.972;2023-10-08T05:15:02;5.03;;;3.20;;
44746;SDS011;30472;49.490;10.972;2023-10-08T05:17:37;5.70;;;3.03;;
44746;SDS011;30472;49.490;10.972;2023-10-08T05:20:19;7.17;;;3.50;;
44746;SDS011;30472;49.490;10.972;2023-10-08T05:23:09;6.43;;;3.97;;
44746;SDS011;30472;49.490;10.972;2023-10-08T05:26:05;6.93;;;3.57;;
44746;SDS011;30472;49.490;10.972;2023-10-08T05:28:40;6.93;;;3.93;;
44746;SDS011;30472;49.490;10.972;2023-10-08T05:31:25;4.80;;;2.83;;
44746;SDS011;30472;49.490;10.972;2023-10-08T05:34:17;7.07;;;3.60;;
44746;SDS011;30472;49.490;10.972;2023-10-08T05:36:58;7.37;;;4.07;;
44746;SDS011;30472;49.490;10.972;2023-10-08T05:39:30;9.33;;;4.30;;
44746;SDS011;30472;49.490;10.972;2023-10-08T05:42:16;6.37;;;3.43;;
44746;SDS011;30472;49.490;10.972;2023-10-08T05:44:45;9.70;;;3.50;;
44746;SDS011;30472;49.490;10.972;2023-10-08T05:47:14;7.63;;;3.20;;
44746;SDS011;30472;49.490;10.972;2023-10-08T05:50:09;10.33;;;3.30;;
44746;SDS011;30472;49.490;10.972;2023-10-08T05:52:45;6.93;;;3.73;;
44746;SDS011;30472;49.490;10.972;2023-10-08T05:55:32;7.67;;;3.60;;
44746;SDS011;30472;49.490;10.972;2023-10-08T05:58:12;8.83;;;3.87;;
44746;SDS011;30472;49.490;10.972;2023-10-08T06:00:43;7.47;;;3.60;;
44746;SDS011;30472;49.490;10.972;2023-10-08T06:03:11;8.00;;;3.60;;
44746;SDS011;30472;49.490;10.972;2023-10-08T06:05:57;7.97;;;3.87;;
44746;SDS011;30472;49.490;10.972;2023-10-08T06:08:47;9.13;;;3.80;;
44746;SDS011;30472;49.490;10.972;2023-10-08T06:11:17;10.00;;;3.67;;
44746;SDS011;30472;49.490;10.972;2023-10-08T06:14:04;8.60;;;3.70;;
44746;SDS011;30472;49.490;10.972;2023-10-08T06:16:42;7.07;;;3.47;;
44746;SDS011;30472;49.490;10.972;2023-10-08T06:19:27;5.83;;;3.23;;
44746;SDS011;30472;49.490;10.972;2023-10-08T06:21:52;8.23;;;3.50;;
44746;SDS011;30472;49.490;10.972;2023-10-08T06:24:18;9.90;;;4.17;;
44746;SDS011;30472;49.490;10.972;2023-10-08T06:26:45;8.53;;;3.83;;
44746;SDS011;30472;49.490;10.972;2023-10-08T06:29:13;8.57;;;3.60;;
44746;SDS011;30472;49.490;10.972;2023-10-08T06:31:56;6.00;;;3.50;;
44746;SDS011;30472;49.490;10.972;2023-10-08T06:34:22;8.20;;;3.63;;
44746;SDS011;30472;49.490;10.972;2023-10-08T06:36:52;6.07;;;3.60;;
44746;SDS011;30472;49.490;10.972;2023-10-08T06:39:20;6.43;;;3.67;;
44746;SDS011;30472;49.490;10.972;2023-10-08T06:41:50;10.73;;;3.40;;
44746;SDS011;30472;49.490;10.972;2023-10-08T06:44:17;8.17;;;3.37;;
44746;SDS011;30472;49.490;10.972;2023-10-08T06:46:43;6.70;;;3.80;;
44746;SDS011;30472;49.490;10.972;2023-10-08T06:49:09;6.87;;;3.60;;
44746;SDS011;30472;49.490;10.972;2023-10-08T06:51:38;7.67;;;3.60;;
44746;SDS011;30472;49.490;10.972;2023-10-08T06:54:06;9.43;;;4.00;;
44746;SDS011;30472;49.490;10.972;2023-10-08T06:56:35;5.70;;;3.30;;
44746;SDS011;30472;49.490;10.972;2023-10-08T06:59:01;6.03;;;3.73;;
44746;SDS011;30472;49.490;10.972;2023-10-08T07:01:28;9.10;;;3.67;;
44746;SDS011;30472;49.490;10.972;2023-10-08T07:04:06;6.20;;;3.43;;
44746;SDS011;30472;49.490;10.972;2023-10-08T07:06:52;7.50;;;3.63;;
44746;SDS011;30472;49.490;10.972;2023-10-08T07:09:19;6.90;;;3.53;;
44746;SDS011;30472;49.490;10.972;2023-10-08T07:11:54;6.43;;;3.87;;
44746;SDS011;30472;49.490;10.972;2023-10-08T07:14:21;5.23;;;3.50;;
44746;SDS011;30472;49.490;10.972;2023-10-08T07:16:55;8.47;;;3.57;;
44746;SDS011;30472;49.490;10.972;2023-10-08T07:19:26;7.57;;;3.60;;
44746;SDS011;30472;49.490;10.972;2023-10-08T07:22:02;8.97;;;3.67;;
44746;SDS011;30472;49.490;10.972;2023-10-08T07:24:28;13.13;;;3.93;;
44746;SDS011;30472;49.490;10.972;2023-10-08T07:26:56;5.10;;;3.77;;
44746;SDS011;30472;49.490;10.972;2023-10-08T07:29:21;5.80;;;3.60;;
44746;SDS011;30472;49.490;10.972;2023-10-08T07:31:47;6.57;;;3.50;;
44746;SDS011;30472;49.490;10.972;2023-10-08T07:34:14;7.63;;;3.80;;
44746;SDS011;30472;49.490;10.972;2023-10-08T07:36:41;5.60;;;3.63;;
44746;SDS011;30472;49.490;10.972;2023-10-08T07:39:07;7.83;;;3.73;;
44746;SDS011;30472;49.490;10.972;2023-10-08T07:41:45;7.00;;;3.00;;
44746;SDS011;30472;49.490;10.972;2023-10-08T07:44:12;8.53;;;3.53;;
44746;SDS011;30472;49.490;10.972;2023-10-08T07:46:39;6.97;;;3.87;;
44746;SDS011;30472;49.490;10.972;2023-10-08T07:49:04;10.10;;;3.63;;
44746;SDS011;30472;49.490;10.972;2023-10-08T07:51:30;8.53;;;3.60;;
44746;SDS011;30472;49.490;10.972;2023-10-08T07:53:56;6.07;;;3.70;;
44746;SDS011;30472;49.490;10.972;2023-10-08T07:56:22;7.27;;;3.80;;
44746;SDS011;30472;49.490;10.972;2023-10-08T07:58:51;8.40;;;3.73;;
44746;SDS011;30472;49.490;10.972;2023-10-08T08:01:20;6.73;;;3.80;;
44746;SDS011;30472;49.490;10.972;2023-10-08T08:03:46;9.90;;;3.63;;
44746;SDS011;30472;49.490;10.972;2023-10-08T08:06:14;7.17;;;3.43;;
44746;SDS011;30472;49.490;10.972;2023-10-08T08:08:40;8.73;;;3.33;;
44746;SDS011;30472;49.490;10.972;2023-10-08T08:11:06;7.53;;;3.63;;
44746;SDS011;30472;49.490;10.972;2023-10-08T08:13:37;7.68;;;3.83;;
44746;SDS011;30472;49.490;10.972;2023-10-08T08:16:04;13.93;;;3.90;;
44746;SDS011;30472;49.490;10.972;2023-10-08T08:18:49;5.50;;;3.30;;
44746;SDS011;30472;49.490;10.972;2023-10-08T08:21:16;9.05;;;4.40;;
44746;SDS011;30472;49.490;10.972;2023-10-08T08:23:44;7.07;;;3.50;;
44746;SDS011;30472;49.490;10.972;2023-10-08T08:26:14;7.75;;;3.50;;
44746;SDS011;30472;49.490;10.972;2023-10-08T08:29:00;5.25;;;3.20;;
44746;SDS011;30472;49.490;10.972;2023-10-08T08:31:30;5.65;;;3.70;;
44746;SDS011;30472;49.490;10.972;2023-10-08T08:34:00;7.25;;;3.30;;
44746;SDS011;30472;49.490;10.972;2023-10-08T08:36:39;6.63;;;3.40;;
44746;SDS011;30472;49.490;10.972;2023-10-08T08:39:10;7.45;;;3.83;;
44746;SDS011;30472;49.490;10.972;2023-10-08T08:41:37;15.85;;;6.82;;
44746;SDS011;30472;49.490;10.972;2023-10-08T08:44:03;12.18;;;6.22;;
44746;SDS011;30472;49.490;10.972;2023-10-08T08:46:32;8.73;;;4.35;;
44746;SDS011;30472;49.490;10.972;2023-10-08T08:49:11;14.40;;;5.75;;
44746;SDS011;30472;49.490;10.972;2023-10-08T08:51:38;8.60;;;4.55;;
44746;SDS011;30472;49.490;10.972;2023-10-08T08:54:04;7.75;;;4.20;;
44746;SDS011;30472;49.490;10.972;2023-10-08T08:56:37;7.32;;;3.90;;
44746;SDS011;30472;49.490;10.972;2023-10-08T08:59:05;10.25;;;4.25;;
44746;SDS011;30472;49.490;10.972;2023-10-08T09:01:31;10.68;;;4.85;;
44746;SDS011;30472;49.490;10.972;2023-10-08T09:04:00;9.23;;;4.03;;
44746;SDS011;30472;49.490;10.972;2023-10-08T09:06:30;6.68;;;4.30;;
44746;SDS011;30472;49.490;10.972;2023-10-08T09:08:59;6.25;;;3.78;;
44746;SDS011;30472;49.490;10.972;2023-10-08T09:11:45;9.88;;;3.75;;
44746;SDS011;30472;49.490;10.972;2023-10-08T09:14:10;5.75;;;3.53;;
44746;SDS011;30472;49.490;10.972;2023-10-08T09:16:36;6.03;;;3.38;;
44746;SDS011;30472;49.490;10.972;2023-10-08T09:19:02;6.03;;;3.67;;
44746;SDS011;30472;49.490;10.972;2023-10-08T09:21:29;7.13;;;4.23;;
44746;SDS011;30472;49.490;10.972;2023-10-08T09:23:55;8.47;;;3.50;;
44746;SDS011;30472;49.490;10.972;2023-10-08T09:26:24;8.90;;;3.80;;
44746;SDS011;30472;49.490;10.972;2023-10-08T09:28:52;8.00;;;3.67;;
44746;SDS011;30472;49.490;10.972;2023-10-08T09:31:18;6.30;;;3.87;;
44746;SDS011;30472;49.490;10.972;2023-10-08T09:33:55;7.97;;;3.90;;
44746;SDS011;30472;49.490;10.972;2023-10-08T09:36:22;5.87;;;3.60;;
44746;SDS011;30472;49.490;10.972;2023-10-08T09:38:58;5.80;;;3.83;;
44746;SDS011;30472;49.490;10.972;2023-10-08T09:41:30;5.50;;;3.67;;
44746;SDS011;30472;49.490;10.972;2023-10-08T09:43:58;11.37;;;4.10;;
44746;SDS011;30472;49.490;10.972;2023-10-08T09:46:27;9.23;;;3.90;;
44746;SDS011;30472;49.490;10.972;2023-10-08T09:48:59;6.32;;;3.83;;
44746;SDS011;30472;49.490;10.972;2023-10-08T09:51:27;7.20;;;3.47;;
44746;SDS011;30472;49.490;10.972;2023-10-08T09:54:10;10.55;;;3.88;;
44746;SDS011;30472;49.490;10.972;2023-10-08T09:56:40;10.05;;;3.60;;
44746;SDS011;30472;49.490;10.972;2023-10-08T09:59:06;9.20;;;3.95;;
44746;SDS011;30472;49.490;10.972;2023-10-08T10:01:34;8.77;;;4.07;;
44746;SDS011;30472;49.490;10.972;2023-10-08T10:04:05;10.50;;;4.47;;
44746;SDS011;30472;49.490;10.972;2023-10-08T10:06:34;9.38;;;3.70;;
44746;SDS011;30472;49.490;10.972;2023-10-08T10:09:01;9.23;;;3.67;;
44746;SDS011;30472;49.490;10.972;2023-10-08T10:11:28;8.63;;;4.07;;
44746;SDS011;30472;49.490;10.972;2023-10-08T10:13:57;9.27;;;4.18;;
44746;SDS011;30472;49.490;10.972;2023-10-08T10:16:27;6.38;;;4.28;;
44746;SDS011;30472;49.490;10.972;2023-10-08T10:18:56;8.93;;;4.32;;
44746;SDS011;30472;49.490;10.972;2023-10-08T10:21:25;8.50;;;4.60;;
44746;SDS011;30472;49.490;10.972;2023-10-08T10:23:53;7.28;;;3.63;;
44746;SDS011;30472;49.490;10.972;2023-10-08T10:31:32;7.93;;;4.50;;
44746;SDS011;30472;49.490;10.972;2023-10-08T10:34:03;8.40;;;4.00;;
44746;SDS011;30472;49.490;10.972;2023-10-08T10:36:30;7.15;;;3.90;;
44746;SDS011;30472;49.490;10.972;2023-10-08T10:38:56;9.40;;;3.75;;
44746;SDS011;30472;49.490;10.972;2023-10-08T10:41:22;8.32;;;4.18;;
44746;SDS011;30472;49.490;10.972;2023-10-08T10:43:47;5.45;;;3.70;;
44746;SDS011;30472;49.490;10.972;2023-10-08T10:46:18;9.13;;;4.60;;
44746;SDS011;30472;49.490;10.972;2023-10-08T10:48:56;10.73;;;4.88;;
44746;SDS011;30472;49.490;10.972;2023-10-08T10:51:29;10.17;;;4.13;;
44746;SDS011;30472;49.490;10.972;2023-10-08T10:53:55;8.83;;;4.57;;
44746;SDS011;30472;49.490;10.972;2023-10-08T10:56:25;7.60;;;4.17;;
44746;SDS011;30472;49.490;10.972;2023-10-08T10:59:01;10.30;;;4.40;;
44746;SDS011;30472;49.490;10.972;2023-10-08T11:01:41;7.83;;;3.83;;
44746;SDS011;30472;49.490;10.972;2023-10-08T11:04:12;8.80;;;4.70;;
44746;SDS011;30472;49.490;10.972;2023-10-08T11:06:40;13.13;;;4.30;;
44746;SDS011;30472;49.490;10.972;2023-10-08T11:09:10;8.17;;;3.93;;
44746;SDS011;30472;49.490;10.972;2023-10-08T11:11:41;7.13;;;4.10;;
44746;SDS011;30472;49.490;10.972;2023-10-08T11:14:10;10.20;;;5.03;;
44746;SDS011;30472;49.490;10.972;2023-10-08T11:16:43;9.80;;;4.20;;
44746;SDS011;30472;49.490;10.972;2023-10-08T11:19:13;6.20;;;3.73;;
44746;SDS011;30472;49.490;10.972;2023-10-08T11:21:50;9.37;;;3.97;;
44746;SDS011;30472;49.490;10.972;2023-10-08T11:24:28;9.10;;;3.97;;
44746;SDS011;30472;49.490;10.972;2023-10-08T11:26:58;6.93;;;4.20;;
44746;SDS011;30472;49.490;10.972;2023-10-08T11:29:46;10.77;;;4.75;;
44746;SDS011;30472;49.490;10.972;2023-10-08T11:32:16;8.38;;;3.75;;
44746;SDS011;30472;49.490;10.972;2023-10-08T11:34:46;8.70;;;4.20;;
44746;SDS011;30472;49.490;10.972;2023-10-08T11:37:15;9.63;;;4.47;;
44746;SDS011;30472;49.490;10.972;2023-10-08T11:40:01;8.40;;;4.07;;
44746;SDS011;30472;49.490;10.972;2023-10-08T11:42:38;8.10;;;4.00;;
44746;SDS011;30472;49.490;10.972;2023-10-08T11:45:03;6.85;;;3.83;;
44746;SDS011;30472;49.490;10.972;2023-10-08T11:47:49;5.40;;;3.55;;
44746;SDS011;30472;49.490;10.972;2023-10-08T11:50:22;7.35;;;4.25;;
44746;SDS011;30472;49.490;10.972;2023-10-08T11:52:55;9.70;;;4.63;;
44746;SDS011;30472;49.490;10.972;2023-10-08T11:55:26;7.40;;;3.78;;
44746;SDS011;30472;49.490;10.972;2023-10-08T11:57:52;5.80;;;4.05;;
44746;SDS011;30472;49.490;10.972;2023-10-08T12:00:17;8.15;;;4.65;;
44746;SDS011;30472;49.490;10.972;2023-10-08T12:02:50;9.45;;;4.28;;
44746;SDS011;30472;49.490;10.972;2023-10-08T12:05:19;8.98;;;4.35;;
44746;SDS011;30472;49.490;10.972;2023-10-08T12:07:49;7.38;;;3.78;;
44746;SDS011;30472;49.490;10.972;2023-10-08T12:10:23;9.50;;;3.83;;
44746;SDS011;30472;49.490;10.972;2023-10-08T12:12:52;8.48;;;3.85;;
44746;SDS011;30472;49.490;10.972;2023-10-08T12:15:19;11.02;;;4.15;;
44746;SDS011;30472;49.490;10.972;2023-10-08T12:17:46;10.40;;;4.55;;
44746;SDS011;30472;49.490;10.972;2023-10-08T12:20:26;9.75;;;3.88;;
44746;SDS011;30472;49.490;10.972;2023-10-08T12:22:52;9.15;;;4.68;;
44746;SDS011;30472;49.490;10.972;2023-10-08T12:25:18;13.13;;;4.78;;
44746;SDS011;30472;49.490;10.972;2023-10-08T12:27:44;5.97;;;3.63;;
44746;SDS011;30472;49.490;10.972;2023-10-08T12:30:10;5.82;;;3.95;;
44746;SDS011;30472;49.490;10.972;2023-10-08T12:32:36;7.05;;;4.30;;
44746;SDS011;30472;49.490;10.972;2023-10-08T12:35:10;9.25;;;4.53;;
44746;SDS011;30472;49.490;10.972;2023-10-08T12:37:38;6.28;;;3.55;;
44746;SDS011;30472;49.490;10.972;2023-10-08T12:40:05;7.53;;;3.92;;
44746;SDS011;30472;49.490;10.972;2023-10-08T12:42:47;11.15;;;4.63;;
44746;SDS011;30472;49.490;10.972;2023-10-08T12:45:13;10.32;;;4.55;;
44746;SDS011;30472;49.490;10.972;2023-10-08T12:47:39;10.23;;;4.60;;
44746;SDS011;30472;49.490;10.972;2023-10-08T12:50:04;9.27;;;4.55;;
44746;SDS011;30472;49.490;10.972;2023-10-08T12:52:33;7.18;;;4.00;;
44746;SDS011;30472;49.490;10.972;2023-10-08T12:55:01;10.63;;;4.97;;
44746;SDS011;30472;49.490;10.972;2023-10-08T12:57:29;8.25;;;4.13;;
44746;SDS011;30472;49.490;10.972;2023-10-08T13:00:00;7.70;;;3.70;;
44746;SDS011;30472;49.490;10.972;2023-10-08T13:02:28;8.63;;;4.25;;
44746;SDS011;30472;49.490;10.972;2023-10-08T13:04:55;7.95;;;4.30;;
44746;SDS011;30472;49.490;10.972;2023-10-08T13:07:23;8.38;;;3.97;;
44746;SDS011;30472;49.490;10.972;2023-10-08T13:09:51;10.95;;;4.25;;
44746;SDS011;30472;49.490;10.972;2023-10-08T13:12:17;10.40;;;4.35;;
44746;SDS011;30472;49.490;10.972;2023-10-08T13:14:43;7.28;;;4.07;;
44746;SDS011;30472;49.490;10.972;2023-10-08T13:17:09;10.25;;;4.40;;
44746;SDS011;30472;49.490;10.972;2023-10-08T13:19:36;8.63;;;4.13;;
44746;SDS011;30472;49.490;10.972;2023-10-08T13:22:02;8.45;;;4.50;;
44746;SDS011;30472;49.490;10.972;2023-10-08T13:24:31;5.55;;;3.85;;
44746;SDS011;30472;49.490;10.972;2023-10-08T13:26:57;6.75;;;3.92;;
44746;SDS011;30472;49.490;10.972;2023-10-08T13:29:24;6.43;;;4.00;;
44746;SDS011;30472;49.490;10.972;2023-10-08T13:31:52;8.13;;;3.95;;
44746;SDS011;30472;49.490;10.972;2023-10-08T13:34:19;9.95;;;4.00;;
44746;SDS011;30472;49.490;10.972;2023-10-08T13:36:46;9.40;;;4.57;;
44746;SDS011;30472;49.490;10.972;2023-10-08T13:39:14;9.20;;;4.35;;
44746;SDS011;30472;49.490;10.972;2023-10-08T13:41:46;7.88;;;4.32;;
44746;SDS011;30472;49.490;10.972;2023-10-08T13:44:17;9.43;;;4.28;;
44746;SDS011;30472;49.490;10.972;2023-10-08T13:46:44;9.18;;;4.65;;
44746;SDS011;30472;49.490;10.972;2023-10-08T13:49:13;8.45;;;4.32;;
44746;SDS011;30472;49.490;10.972;2023-10-08T13:51:41;7.60;;;4.60;;
44746;SDS011;30472;49.490;10.972;2023-10-08T13:54:09;9.77;;;4.40;;
44746;SDS011;30472;49.490;10.972;2023-10-08T13:56:35;5.72;;;4.30;;
44746;SDS011;30472;49.490;10.972;2023-10-08T13:59:02;7.45;;;4.35;;
44746;SDS011;30472;49.490;10.972;2023-10-08T14:01:31;8.93;;;4.65;;
44746;SDS011;30472;49.490;10.972;2023-10-08T14:04:00;13.57;;;5.47;;
44746;SDS011;30472;49.490;10.972;2023-10-08T14:06:31;11.18;;;5.00;;
44746;SDS011;30472;49.490;10.972;2023-10-08T14:09:01;7.18;;;3.97;;
44746;SDS011;30472;49.490;10.972;2023-10-08T14:11:33;8.23;;;3.90;;
44746;SDS011;30472;49.490;10.972;2023-10-08T14:13:58;9.80;;;4.32;;
44746;SDS011;30472;49.490;10.972;2023-10-08T14:16:27;10.17;;;4.40;;
44746;SDS011;30472;49.490;10.972;2023-10-08T14:18:54;8.20;;;4.35;;
44746;SDS011;30472;49.490;10.972;2023-10-08T14:21:21;10.02;;;4.63;;
44746;SDS011;30472;49.490;10.972;2023-10-08T14:23:55;7.32;;;4.47;;
44746;SDS011;30472;49.490;10.972;2023-10-08T14:26:27;10.52;;;4.63;;
44746;SDS011;30472;49.490;10.972;2023-10-08T14:29:00;7.95;;;4.50;;
44746;SDS011;30472;49.490;10.972;2023-10-08T14:31:32;7.22;;;4.18;;
44746;SDS011;30472;49.490;10.972;2023-10-08T14:33:58;11.77;;;4.95;;
44746;SDS011;30472;49.490;10.972;2023-10-08T14:36:31;9.85;;;4.25;;
44746;SDS011;30472;49.490;10.972;2023-10-08T14:39:18;8.52;;;4.22;;
44746;SDS011;30472;49.490;10.972;2023-10-08T14:42:02;7.45;;;4.80;;
44746;SDS011;30472;49.490;10.972;2023-10-08T14:44:46;6.38;;;4.70;;
44746;SDS011;30472;49.490;10.972;2023-10-08T14:47:14;10.52;;;4.88;;
44746;SDS011;30472;49.490;10.972;2023-10-08T14:49:40;10.23;;;4.38;;
44746;SDS011;30472;49.490;10.972;2023-10-08T14:52:07;6.90;;;4.20;;
44746;SDS011;30472;49.490;10.972;2023-10-08T14:54:33;11.35;;;4.43;;
44746;SDS011;30472;49.490;10.972;2023-10-08T14:56:59;8.50;;;4.30;;
44746;SDS011;30472;49.490;10.972;2023-10-08T14:59:27;6.50;;;4.00;;
44746;SDS011;30472;49.490;10.972;2023-10-08T15:01:55;9.50;;;3.97;;